Wichita, Kansas
Current Conditions -  °F | °C
As of 6:21 PM on Sunday 23 Nov 2014 (Local Time) from KIAB Reporting Station
Few Clouds Few Clouds  
Wind Chill: 32°   Ceiling: Unl
Heat Index: 41°   Visibility: 10mi
Dew Point: 41°   Wind: 17mph
Humidity: 100%   Direction: 360°N
Pressure: 29.57"   Gusts: 29mph
Location:  37.69°N, 97.33°W
Report Text: KIAB 240021Z AUTO 36015G25KT 10SM FEW004 05/05 A2957 RMK AO2
Loading
Personal Weather Stations






























Interactive Weather Map New forecast layout! Learn more

10-Day Weather Forecast

Advertisements
Track Severe Weather on mobile